createdAt,value
2023-04-04T00:01:49.281Z,100481.25
2023-04-04T00:05:52.664Z,100481.25
2023-04-04T00:09:55.984Z,100482.75
2023-04-04T00:13:59.754Z,100490.53
2023-04-04T00:18:04.491Z,100485.19
2023-04-04T00:22:07.487Z,100489.44
2023-04-04T00:26:10.722Z,100478.81
2023-04-04T00:30:15.438Z,100484.09
2023-04-04T00:34:19.821Z,100480.69
2023-04-04T00:38:22.814Z,100484.94
2023-04-04T00:42:26.268Z,100485.59
2023-04-04T00:46:29.689Z,100488.19
2023-04-04T00:50:34.472Z,100480.25
2023-04-04T00:54:37.762Z,100490.44
2023-04-04T00:58:41.184Z,100487.78
2023-04-04T01:02:44.319Z,100488.47
2023-04-04T01:06:49.903Z,100493.56
2023-04-04T01:10:53.215Z,100494.38
2023-04-04T01:14:56.959Z,100496.75
2023-04-04T01:19:00.499Z,100497.59
2023-04-04T01:23:07.491Z,100499.34
2023-04-04T01:27:13.403Z,100495.00
2023-04-04T01:31:27.312Z,100488.91
2023-04-04T01:35:36.827Z,100492.25
2023-04-04T01:39:44.959Z,100493.88
2023-04-04T01:43:51.395Z,100496.31
2023-04-04T01:47:54.547Z,100497.97
2023-04-04T01:52:00.219Z,100497.97
2023-04-04T01:56:03.674Z,100496.19
2023-04-04T02:00:12.716Z,100491.88
2023-04-04T02:04:21.424Z,100483.19
2023-04-04T02:08:24.748Z,100493.56
2023-04-04T02:12:31.614Z,100490.84
2023-04-04T02:16:36.021Z,100475.28
2023-04-04T02:20:39.184Z,100476.16
2023-04-04T02:24:42.455Z,100476.00
2023-04-04T02:28:45.683Z,100471.56
2023-04-04T02:32:50.368Z,100471.56
2023-04-04T02:36:55.940Z,100476.59
2023-04-04T02:40:59.621Z,100475.72
2023-04-04T02:45:02.682Z,100479.94
2023-04-04T02:49:07.310Z,100479.72
2023-04-04T02:53:11.536Z,100488.31
2023-04-04T02:57:14.667Z,100485.44
2023-04-04T03:01:17.953Z,100474.97
2023-04-04T03:05:22.761Z,100469.56
2023-04-04T03:09:25.913Z,100456.41
2023-04-04T03:13:29.309Z,100457.25
2023-04-04T03:17:32.608Z,100452.72
2023-04-04T03:21:37.825Z,100448.13
2023-04-04T03:25:40.834Z,100440.25
2023-04-04T03:29:44.136Z,100433.13
2023-04-04T03:33:47.630Z,100432.97
2023-04-04T03:37:52.639Z,100421.56
2023-04-04T03:41:55.639Z,100430.06
2023-04-04T03:46:01.689Z,100421.31
2023-04-04T03:50:05.136Z,100425.41
2023-04-04T03:54:11.015Z,100423.47
2023-04-04T03:58:14.177Z,100427.72
2023-04-04T04:02:17.413Z,100418.13
2023-04-04T04:06:22.187Z,100427.38
2023-04-04T04:10:26.635Z,100418.72
2023-04-04T04:14:29.649Z,100426.28
2023-04-04T04:18:34.173Z,100422.72
2023-04-04T04:22:38.260Z,100433.09
2023-04-04T04:26:42.738Z,100422.72
2023-04-04T04:30:47.703Z,100419.81
2023-04-04T04:34:55.010Z,100423.16
2023-04-04T04:39:03.562Z,100430.69
2023-04-04T04:43:13.161Z,100440.34
2023-04-04T04:47:16.249Z,100435.78
2023-04-04T04:51:19.617Z,100431.50
2023-04-04T04:55:27.728Z,100436.47
2023-04-04T04:59:42.535Z,100437.13
2023-04-04T05:03:47.864Z,100430.22
2023-04-04T05:07:56.822Z,100432.91
2023-04-04T05:11:59.944Z,100447.59
2023-04-04T05:16:16.520Z,100451.94
2023-04-04T05:20:23.310Z,100433.78
2023-04-04T05:24:27.740Z,100451.31
2023-04-04T05:28:31.092Z,100453.06
2023-04-04T05:32:39.494Z,100465.94
2023-04-04T05:36:48.211Z,100479.16
2023-04-04T05:40:51.464Z,100471.53
2023-04-04T05:44:54.570Z,100477.69
2023-04-04T05:48:59.742Z,100476.16
2023-04-04T05:53:04.822Z,100493.81
2023-04-04T05:57:08.495Z,100495.81
2023-04-04T06:01:32.914Z,100496.41
2023-04-04T06:05:43.368Z,100495.78
2023-04-04T06:09:46.847Z,100499.66
2023-04-04T06:13:50.113Z,100500.78
2023-04-04T06:17:55.946Z,100503.91
2023-04-04T06:22:01.157Z,100498.44
2023-04-04T06:26:05.436Z,100496.34
2023-04-04T06:30:11.849Z,100482.69
2023-04-04T06:34:16.287Z,100490.69
2023-04-04T06:38:30.469Z,100497.28
2023-04-04T06:42:37.180Z,100496.47
2023-04-04T06:46:41.669Z,100494.13
2023-04-04T06:50:44.770Z,100484.06
2023-04-04T06:54:51.901Z,100483.38
2023-04-04T06:58:55.449Z,100504.75
2023-04-04T07:03:00.239Z,100499.97
2023-04-04T07:07:03.744Z,100495.06
2023-04-04T07:11:08.487Z,100487.25
2023-04-04T07:15:12.692Z,100486.59
2023-04-04T07:19:15.884Z,100494.38
2023-04-04T07:23:18.948Z,100486.69
2023-04-04T07:27:23.428Z,100486.44
2023-04-04T07:31:26.459Z,100485.16
2023-04-04T07:35:30.144Z,100489.88
2023-04-04T07:39:33.189Z,100473.44
2023-04-04T07:43:37.588Z,100478.84
2023-04-04T07:47:44.285Z,100479.13
2023-04-04T07:51:47.330Z,100482.09
2023-04-04T07:55:50.316Z,100491.22
2023-04-04T07:59:54.982Z,100480.16
2023-04-04T08:03:58.235Z,100485.50
2023-04-04T08:08:01.397Z,100491.22
2023-04-04T08:12:05.695Z,100477.78
2023-04-04T08:16:10.375Z,100489.78
2023-04-04T08:20:14.400Z,100485.75
2023-04-04T08:24:17.397Z,100477.69
2023-04-04T08:28:20.536Z,100481.81
2023-04-04T08:32:25.075Z,100468.22
2023-04-04T08:36:28.116Z,100475.00
2023-04-04T08:40:32.708Z,100484.00
2023-04-04T08:44:38.342Z,100472.88
2023-04-04T08:48:45.872Z,100473.66
2023-04-04T08:52:49.325Z,100475.78
2023-04-04T08:56:53.075Z,100464.22
2023-04-04T09:00:56.561Z,100464.69
2023-04-04T09:05:06.705Z,100452.16
2023-04-04T09:09:11.120Z,100449.47
2023-04-04T09:13:16.556Z,100439.94
2023-04-04T09:17:20.192Z,100420.41
2023-04-04T09:21:24.620Z,100437.91
2023-04-04T09:25:27.666Z,100437.84
2023-04-04T09:29:31.130Z,100447.72
2023-04-04T09:33:35.443Z,100444.50
2023-04-04T09:37:42.308Z,100440.72
2023-04-04T09:41:46.012Z,100444.72
2023-04-04T09:45:51.046Z,100433.91
2023-04-04T09:49:54.445Z,100441.84
2023-04-04T09:53:59.678Z,100425.16
2023-04-04T09:58:13.298Z,100418.38
2023-04-04T10:02:16.854Z,100415.84
2023-04-04T10:06:20.572Z,100419.03
2023-04-04T10:10:26.736Z,100422.47
2023-04-04T10:14:36.659Z,100409.38
2023-04-04T10:18:40.281Z,100413.47
2023-04-04T10:22:45.492Z,100412.25
2023-04-04T10:26:49.995Z,100410.22
2023-04-04T10:31:06.627Z,100400.09
2023-04-04T10:35:12.342Z,100394.69
2023-04-04T10:39:19.882Z,100404.56
2023-04-04T10:43:28.676Z,100401.25
2023-04-04T10:47:32.922Z,100388.53
2023-04-04T10:51:45.257Z,100372.88
2023-04-04T10:55:56.828Z,100363.81
2023-04-04T11:00:05.437Z,100367.25
2023-04-04T11:04:21.111Z,100368.25
2023-04-04T11:08:27.287Z,100371.78
2023-04-04T11:12:34.150Z,100366.72
2023-04-04T11:16:48.314Z,100352.19
2023-04-04T11:20:51.690Z,100341.28
2023-04-04T11:25:01.556Z,100333.56
2023-04-04T11:29:08.263Z,100324.63
2023-04-04T11:33:15.303Z,100318.63
2023-04-04T11:37:18.999Z,100304.03
2023-04-04T11:41:22.128Z,100298.97
2023-04-04T11:45:27.734Z,100292.19
2023-04-04T11:49:35.473Z,100286.25
2023-04-04T11:53:38.538Z,100290.22
2023-04-04T11:57:43.321Z,100266.59
2023-04-04T12:01:46.850Z,100278.06
2023-04-04T12:05:51.356Z,100279.91
2023-04-04T12:09:56.243Z,100264.28
2023-04-04T12:14:01.212Z,100269.03
2023-04-04T12:18:05.110Z,100251.59
2023-04-04T12:22:09.762Z,100236.25
2023-04-04T12:26:12.828Z,100242.47
2023-04-04T12:30:17.154Z,100245.09
2023-04-04T12:34:23.349Z,100228.78
2023-04-04T12:38:28.143Z,100226.34
2023-04-04T12:42:32.938Z,100230.91
2023-04-04T12:46:40.072Z,100221.19
2023-04-04T12:50:54.246Z,100204.56
2023-04-04T12:59:10.978Z,100208.81
2023-04-04T13:03:16.394Z,100218.50
2023-04-04T13:07:25.889Z,100207.41
2023-04-04T13:12:01.957Z,100207.34
2023-04-04T13:16:08.077Z,100206.31
2023-04-04T13:20:12.711Z,100210.56
2023-04-04T13:24:15.937Z,100190.72
2023-04-04T13:28:20.412Z,100169.88
2023-04-04T13:32:23.755Z,100179.50
2023-04-04T13:36:28.518Z,100179.72
2023-04-04T13:40:31.617Z,100170.19
2023-04-04T13:44:36.168Z,100173.63
2023-04-04T13:48:39.216Z,100176.25
2023-04-04T13:52:42.437Z,100155.22
2023-04-04T13:56:47.395Z,100173.53
2023-04-04T14:00:52.027Z,100175.19
2023-04-04T14:04:55.057Z,100166.56
2023-04-04T14:08:58.090Z,100176.19
2023-04-04T14:13:01.704Z,100161.38
2023-04-04T14:17:06.396Z,100177.88
2023-04-04T14:21:09.645Z,100181.41
2023-04-04T14:25:12.754Z,100180.44
2023-04-04T14:29:16.082Z,100178.69
2023-04-04T14:33:20.555Z,100183.09
2023-04-04T14:37:24.071Z,100173.47
2023-04-04T14:41:27.383Z,100195.22
2023-04-04T14:45:30.440Z,100197.84
2023-04-04T14:49:34.878Z,100206.47
2023-04-04T14:53:37.909Z,100203.91
2023-04-04T14:57:57.190Z,100196.13
2023-04-04T15:02:04.180Z,100202.28
2023-04-04T15:06:08.982Z,100204.91
2023-04-04T15:10:12.013Z,100205.69
2023-04-04T15:14:15.061Z,100204.78
2023-04-04T15:18:18.263Z,100219.41
2023-04-04T15:22:22.867Z,100205.41
2023-04-04T15:26:26.120Z,100208.84
2023-04-04T15:30:29.260Z,100217.56
2023-04-04T15:34:32.352Z,100216.63
2023-04-04T15:38:37.108Z,100225.34
2023-04-04T15:42:40.121Z,100216.63
2023-04-04T15:46:43.165Z,100217.31
2023-04-04T15:50:46.320Z,100218.22
2023-04-04T15:54:50.801Z,100209.47
2023-04-04T15:58:53.852Z,100215.44
2023-04-04T16:02:58.518Z,100225.09
2023-04-04T16:07:02.653Z,100220.63
2023-04-04T16:11:07.712Z,100237.22
2023-04-04T16:15:11.890Z,100236.28
2023-04-04T16:19:16.996Z,100235.28
2023-04-04T16:23:20.280Z,100237.94
2023-04-04T16:27:24.841Z,100243.13
2023-04-04T16:31:28.373Z,100242.19
2023-04-04T16:35:32.613Z,100238.59
2023-04-04T16:39:36.330Z,100246.34
2023-04-04T16:43:40.731Z,100253.19
2023-04-04T16:47:43.773Z,100254.88
2023-04-04T16:51:47.019Z,100256.41
2023-04-04T16:55:50.011Z,100255.34
2023-04-04T16:59:54.426Z,100259.59
2023-04-04T17:03:57.437Z,100261.13
2023-04-04T17:08:00.660Z,100261.88
2023-04-04T17:12:04.163Z,100270.50
2023-04-04T17:16:09.165Z,100265.13
2023-04-04T17:20:17.729Z,100263.19
2023-04-04T17:24:23.182Z,100271.75
2023-04-04T17:28:26.204Z,100275.91
2023-04-04T17:32:31.487Z,100283.53
2023-04-04T17:36:34.686Z,100286.00
2023-04-04T17:40:40.690Z,100288.50
2023-04-04T17:44:44.275Z,100297.06
2023-04-04T17:48:48.663Z,100300.31
2023-04-04T17:52:51.662Z,100304.47
2023-04-04T17:56:54.709Z,100313.78
2023-04-04T18:00:58.116Z,100324.16
2023-04-04T18:05:02.632Z,100325.81
2023-04-04T18:09:05.664Z,100331.63
2023-04-04T18:13:08.783Z,100339.16
2023-04-04T18:17:11.916Z,100347.69
2023-04-04T18:21:16.392Z,100358.03
2023-04-04T18:25:19.783Z,100363.09
2023-04-04T18:29:22.827Z,100367.25
2023-04-04T18:33:27.299Z,100387.13
2023-04-04T18:37:31.828Z,100377.31
2023-04-04T18:41:35.063Z,100379.75
2023-04-04T18:45:40.604Z,100393.44
2023-04-04T18:49:44.010Z,100390.50
2023-04-04T18:53:48.428Z,100397.28
2023-04-04T18:57:51.436Z,100404.91
2023-04-04T19:01:56.478Z,100410.69
2023-04-04T19:06:01.578Z,100408.69
2023-04-04T19:10:07.793Z,100421.41
2023-04-04T19:14:11.013Z,100423.81
2023-04-04T19:18:14.242Z,100421.22
2023-04-04T19:22:17.402Z,100433.91
2023-04-04T19:26:22.437Z,100437.91
2023-04-04T19:30:43.798Z,100438.31
2023-04-04T19:34:47.533Z,100443.19
2023-04-04T19:38:51.487Z,100447.19
2023-04-04T19:42:57.377Z,100444.34
2023-04-04T19:47:01.157Z,100443.28
2023-04-04T19:51:08.537Z,100452.47
2023-04-04T19:55:11.830Z,100458.97
2023-04-04T19:59:48.412Z,100463.91
2023-04-04T20:03:53.186Z,100467.91
2023-04-04T20:07:56.386Z,100472.78
2023-04-04T20:11:59.389Z,100479.56
2023-04-04T20:16:04.806Z,100478.41
2023-04-04T20:20:12.287Z,100479.06
2023-04-04T20:24:18.505Z,100484.75
2023-04-04T20:28:26.970Z,100485.34
2023-04-04T20:32:30.074Z,100485.97
2023-04-04T20:36:42.201Z,100482.13
2023-04-04T20:40:45.374Z,100485.91
2023-04-04T20:44:48.514Z,100486.44
2023-04-04T20:48:54.239Z,100488.00
2023-04-04T20:53:00.372Z,100497.56
2023-04-04T20:57:04.429Z,100501.91
2023-04-04T21:01:10.179Z,100510.38
2023-04-04T21:05:28.461Z,100505.72
2023-04-04T21:09:32.976Z,100513.38
2023-04-04T21:13:37.837Z,100499.28
2023-04-04T21:17:40.984Z,100500.91
2023-04-04T21:21:44.038Z,100504.03
2023-04-04T21:25:48.497Z,100496.03
2023-04-04T21:29:51.665Z,100493.97
2023-04-04T21:33:58.177Z,100497.97
2023-04-04T21:38:01.319Z,100500.41
2023-04-04T21:42:08.581Z,100499.22
2023-04-04T21:46:12.278Z,100496.28
2023-04-04T21:50:15.683Z,100495.16
2023-04-04T21:54:19.474Z,100493.34
2023-04-04T21:58:23.983Z,100494.91
2023-04-04T22:02:27.059Z,100498.13
2023-04-04T22:06:31.154Z,100491.09
2023-04-04T22:10:34.294Z,100493.44
2023-04-04T22:14:43.626Z,100492.31
2023-04-04T22:18:48.417Z,100486.28
2023-04-04T22:22:51.465Z,100484.47
2023-04-04T22:26:55.145Z,100483.50
2023-04-04T22:30:59.684Z,100489.41
2023-04-04T22:35:03.335Z,100495.44
2023-04-04T22:39:06.487Z,100486.69
2023-04-04T22:43:09.610Z,100484.91
2023-04-04T22:47:14.422Z,100490.81
2023-04-04T22:51:17.443Z,100494.94
2023-04-04T22:55:23.258Z,100491.63
2023-04-04T22:59:26.338Z,100486.38
2023-04-04T23:03:31.173Z,100486.38
2023-04-04T23:07:34.489Z,100473.16
2023-04-04T23:11:38.314Z,100476.59
2023-04-04T23:15:44.272Z,100475.53
2023-04-04T23:19:48.696Z,100474.69
2023-04-04T23:23:51.776Z,100478.94
2023-04-04T23:27:55.004Z,100471.97
2023-04-04T23:31:58.172Z,100471.06
2023-04-04T23:36:02.563Z,100471.97
2023-04-04T23:40:07.183Z,100469.94
2023-04-04T23:44:10.442Z,100461.28
2023-04-04T23:48:13.730Z,100466.47
2023-04-04T23:52:18.216Z,100462.84
2023-04-04T23:56:21.514Z,100459.03
